Main page
METAR-TAF:

METAR-TAF

Airports :

RAF Valley

Valley, Wales

latitude: 53-15N, longitude: 004-32W, elevation: 1 m

Current weather observation

The report was made 37 minutes ago, at 14:50 UTC
Wind 15 kt from the South
Temperature 20°C
Humidity 83%
Pressure 1014 hPa
Visibility 10 km or more
Few clouds at a height of 200 ft
Broken clouds at a height of 4000 ft

METAR: EGOV 231450Z 18015KT 9999 FEW002 BKN040 20/17 Q1014 BLU TEMPO SCT014 GRN

Time: 16:27 (15:27 UTC)

Forecast

The report was made 1 hour and 29 minutes ago, at 13:58 UTC
Forecast valid from 23 at 15 UTC to 23 at 19 UTC
Wind 17 kt from the South
Visibility 10 km or more
Few clouds at a height of 100 ft
Broken clouds at a height of 3000 ft
Probability 30% :
Temporary
from 23 at 15 UTC to 23 at 16 UTC
Visibility: 4000 m
Scattered clouds at a height of 1400 ft
mist

TAF: EGOV 231358Z 2315/2319 18017KT 9999 FEW001 BKN030 PROB30 TEMPO 2315/2316 4000 BR SCT014

Weather observations and forecasts of more than 4000 airports (METAR and TAF reports).

The available stations are represented by yellow and red dots on the map.

Hover mouse over dot to see the name of the station.

Then click to see weather observations and forecasts.

To change the map : click on the green buttons with a black cross to zoom in, on the green button with a dash to zoom out, or on the green arrows for adjacent maps.


METAR-TAF: